< Typhoon 197718 1977 Season Typhoon 197720 >
Typhoon 197719 (KIM)
General InformationTrack Information on Google MapsDetailed Wind Information || Disaster Info.ResourceGoogle EarthGE AnimationAtom FeedGeoJSON
Detalied Best Track (Time Zone = UTC)
Year Month Day Hour Lat. Long. Pressure (hPa) Wind (kt) Class Image Chart
1977 11 4 00 7.0 156.0 1006 0 2 -- Chart
1977 11 4 06 7.7 155.3 1006 0 2 -- Chart
1977 11 4 12 8.2 154.5 1006 0 2 -- Chart
1977 11 4 18 8.7 153.7 1006 0 2 -- Chart
1977 11 5 00 9.5 153.0 1006 0 2 -- Chart
1977 11 5 06 9.7 153.1 1006 0 2 -- Chart
1977 11 5 12 9.8 153.4 1006 0 2 -- Chart
1977 11 5 18 9.9 153.6 1006 0 2 -- Chart
1977 11 6 00 10.1 153.8 1004 0 2 -- Chart
1977 11 6 06 10.9 152.8 1002 0 2 -- Chart
1977 11 6 12 11.2 152.0 1000 0 2 -- Chart
1977 11 6 18 11.5 151.7 990 35 3 -- Chart
1977 11 7 00 12.1 150.8 990 40 3 -- Chart
1977 11 7 06 12.5 150.0 990 40 3 -- Chart
1977 11 7 12 12.8 149.2 990 40 3 -- Chart
1977 11 7 18 12.9 148.2 985 40 3 -- Chart
1977 11 8 00 13.1 147.2 980 55 4 -- Chart
1977 11 8 06 13.3 145.8 980 60 4 -- Chart
1977 11 8 12 13.5 144.5 975 65 5 -- Chart
1977 11 8 18 13.9 143.1 965 70 5 -- Chart
1977 11 9 00 14.1 141.6 940 70 5 -- Chart
1977 11 9 06 14.4 140.0 935 95 5 -- Chart
1977 11 9 12 14.5 138.6 935 100 5 -- Chart
1977 11 9 18 14.7 137.0 930 100 5 -- Chart
1977 11 10 00 14.8 135.5 930 90 5 -- Chart
1977 11 10 06 14.8 134.1 925 100 5 -- Chart
1977 11 10 12 14.6 133.2 920 110 5 -- Chart
1977 11 10 18 14.6 132.4 920 100 5 -- Chart
1977 11 11 00 14.7 131.7 920 100 5 -- Chart
1977 11 11 06 14.7 130.8 930 100 5 -- Chart
1977 11 11 12 14.7 130.3 935 100 5 -- Chart
1977 11 11 18 14.7 129.8 940 100 5 -- Chart
1977 11 12 00 14.7 129.0 940 90 5 -- Chart
1977 11 12 06 14.5 128.1 940 90 5 -- Chart
1977 11 12 12 14.4 127.2 935 90 5 -- Chart
1977 11 12 18 14.4 126.3 935 90 5 -- Chart
1977 11 13 00 14.5 125.3 930 90 5 -- Chart
1977 11 13 06 14.6 124.1 925 90 5 -- Chart
1977 11 13 12 14.6 123.1 930 100 5 -- Chart
1977 11 13 18 14.8 121.8 935 90 5 -- Chart
1977 11 14 00 15.2 120.6 955 85 5 -- Chart
1977 11 14 06 15.3 119.3 960 80 5 -- Chart
1977 11 14 12 15.7 118.3 975 65 5 -- Chart
1977 11 14 18 16.0 118.2 980 55 4 -- Chart
1977 11 15 00 16.4 118.0 985 45 3 -- Chart
1977 11 15 06 17.0 118.1 990 45 3 -- Chart
1977 11 15 12 17.8 118.3 992 40 3 -- Chart
1977 11 15 18 18.8 118.8 994 35 3 -- Chart
1977 11 16 00 19.9 119.7 996 35 3 -- Chart
1977 11 16 06 20.5 121.1 1000 35 3 -- Chart
1977 11 16 12 21.0 122.9 1004 0 2 -- Chart
1977 11 16 18 22.0 124.9 1006 0 2 -- Chart
1977 11 17 00 23.1 127.1 1006 0 2 -- Chart
1977 11 17 06 24.0 129.0 1006 0 6 -- Chart
1977 11 17 12 24.0 131.0 1006 0 6 -- Chart
1977 11 17 18 24.5 133.0 1008 0 6 -- Chart
Japan Meteorological Agency Best Track Data | Correction Date : 1992-10-21
< Typhoon 197718 1977 Season Typhoon 197720 >

Help